createdAt,value
2018-08-28T00:00:36.862Z,3.30
2018-08-28T00:03:06.327Z,3.30
2018-08-28T00:05:35.557Z,2.95
2018-08-28T00:08:05.037Z,2.85
2018-08-28T00:10:34.366Z,3.22
2018-08-28T00:13:03.607Z,2.70
2018-08-28T00:15:32.865Z,2.92
2018-08-28T00:18:02.202Z,3.10
2018-08-28T00:20:31.528Z,3.08
2018-08-28T00:23:00.734Z,2.77
2018-08-28T00:25:30.009Z,3.17
2018-08-28T00:27:59.285Z,3.20
2018-08-28T00:30:28.572Z,3.33
2018-08-28T00:32:57.800Z,3.20
2018-08-28T00:35:27.023Z,3.30
2018-08-28T00:37:56.229Z,3.22
2018-08-28T00:40:25.497Z,3.35
2018-08-28T00:42:54.696Z,3.10
2018-08-28T00:45:23.913Z,3.70
2018-08-28T00:47:53.177Z,3.20
2018-08-28T00:50:22.517Z,3.45
2018-08-28T00:52:51.723Z,3.27
2018-08-28T00:55:20.974Z,3.37
2018-08-28T00:57:50.182Z,3.47
2018-08-28T01:00:19.446Z,3.42
2018-08-28T01:02:48.671Z,3.50
2018-08-28T01:05:17.941Z,3.20
2018-08-28T01:07:47.238Z,3.12
2018-08-28T01:10:16.486Z,3.15
2018-08-28T01:12:45.695Z,2.92
2018-08-28T01:15:14.888Z,3.30
2018-08-28T01:17:44.096Z,3.08
2018-08-28T01:20:13.285Z,3.30
2018-08-28T01:22:42.505Z,3.20
2018-08-28T01:25:11.793Z,3.25
2018-08-28T01:27:41.021Z,2.90
2018-08-28T01:30:10.225Z,2.95
2018-08-28T01:32:39.454Z,2.70
2018-08-28T01:35:08.666Z,3.20
2018-08-28T01:37:37.881Z,2.83
2018-08-28T01:40:07.209Z,3.40
2018-08-28T01:42:36.427Z,3.42
2018-08-28T01:45:05.864Z,2.87
2018-08-28T01:47:35.077Z,2.80
2018-08-28T01:50:04.299Z,3.08
2018-08-28T01:52:33.516Z,3.30
2018-08-28T01:55:02.724Z,2.58
2018-08-28T01:57:32.005Z,3.10
2018-08-28T02:00:01.238Z,3.30
2018-08-28T02:02:30.519Z,3.30
2018-08-28T02:04:59.906Z,2.75
2018-08-28T02:07:29.160Z,3.37
2018-08-28T02:09:58.395Z,3.80
2018-08-28T02:12:27.641Z,2.98
2018-08-28T02:14:56.860Z,2.77
2018-08-28T02:17:26.239Z,3.20
2018-08-28T02:19:55.453Z,2.75
2018-08-28T02:22:24.660Z,2.67
2018-08-28T02:24:53.871Z,2.85
2018-08-28T02:27:23.103Z,3.25
2018-08-28T02:29:52.345Z,3.50
2018-08-28T02:32:21.600Z,2.85
2018-08-28T02:34:50.972Z,2.75
2018-08-28T02:37:20.283Z,3.50
2018-08-28T02:39:49.553Z,3.47
2018-08-28T02:42:18.845Z,3.60
2018-08-28T02:44:48.071Z,3.12
2018-08-28T02:47:17.293Z,3.58
2018-08-28T02:49:46.524Z,4.00
2018-08-28T02:52:15.762Z,3.27
2018-08-28T02:54:45.062Z,3.45
2018-08-28T02:57:14.295Z,3.60
2018-08-28T02:59:43.555Z,3.40
2018-08-28T03:02:12.786Z,3.42
2018-08-28T03:04:42.040Z,3.60
2018-08-28T03:07:11.285Z,3.62
2018-08-28T03:09:40.456Z,2.98
2018-08-28T03:12:09.676Z,3.42
2018-08-28T03:14:38.880Z,3.50
2018-08-28T03:17:08.177Z,3.50
2018-08-28T03:19:37.381Z,3.70
2018-08-28T03:22:06.638Z,3.52
2018-08-28T03:24:35.863Z,3.70
2018-08-28T03:27:05.173Z,4.00
2018-08-28T03:29:34.372Z,3.90
2018-08-28T03:32:03.636Z,3.62
2018-08-28T03:34:32.836Z,3.67
2018-08-28T03:37:02.169Z,3.83
2018-08-28T03:39:31.464Z,3.72
2018-08-28T03:42:00.699Z,4.05
2018-08-28T03:44:29.967Z,4.15
2018-08-28T03:47:00.561Z,3.30
2018-08-28T03:49:29.795Z,3.45
2018-08-28T03:51:59.028Z,3.80
2018-08-28T03:54:28.404Z,4.25
2018-08-28T03:56:57.649Z,4.37
2018-08-28T03:59:27.243Z,3.72
2018-08-28T04:01:56.465Z,3.75
2018-08-28T04:04:25.699Z,4.05
2018-08-28T04:06:54.934Z,3.65
2018-08-28T04:09:24.198Z,3.45
2018-08-28T04:11:53.446Z,3.98
2018-08-28T04:14:22.753Z,3.47
2018-08-28T04:16:52.086Z,3.30
2018-08-28T04:19:21.295Z,3.25
2018-08-28T04:21:50.526Z,3.10
2018-08-28T04:24:19.749Z,3.50
2018-08-28T04:26:48.989Z,4.08
2018-08-28T04:29:18.299Z,3.77
2018-08-28T04:31:47.540Z,3.77
2018-08-28T04:34:16.789Z,3.47
2018-08-28T04:36:46.021Z,3.60
2018-08-28T04:39:15.332Z,3.80
2018-08-28T04:41:44.545Z,4.28
2018-08-28T04:44:13.782Z,3.75
2018-08-28T04:46:43.005Z,4.35
2018-08-28T04:49:12.245Z,4.40
2018-08-28T04:51:41.452Z,3.67
2018-08-28T04:54:10.744Z,4.60
2018-08-28T04:56:39.951Z,4.03
2018-08-28T04:59:09.207Z,4.90
2018-08-28T05:01:38.476Z,3.85
2018-08-28T05:04:07.761Z,4.35
2018-08-28T05:06:37.000Z,4.30
2018-08-28T05:09:07.569Z,4.15
2018-08-28T05:11:36.860Z,4.70
2018-08-28T05:14:06.139Z,4.67
2018-08-28T05:16:35.362Z,4.28
2018-08-28T05:19:04.605Z,4.33
2018-08-28T05:21:33.813Z,4.35
2018-08-28T05:24:03.056Z,4.40
2018-08-28T05:26:32.281Z,4.83
2018-08-28T05:29:01.898Z,7.42
2018-08-28T05:31:31.187Z,4.50
2018-08-28T05:34:00.433Z,4.55
2018-08-28T05:36:29.657Z,4.37
2018-08-28T05:38:58.932Z,6.62
2018-08-28T05:41:28.153Z,4.78
2018-08-28T05:43:57.440Z,4.25
2018-08-28T05:46:26.732Z,4.47
2018-08-28T05:48:56.054Z,4.87
2018-08-28T05:51:25.256Z,5.50
2018-08-28T05:53:54.485Z,5.25
2018-08-28T05:56:23.676Z,5.53
2018-08-28T05:58:52.917Z,4.92
2018-08-28T06:01:22.145Z,6.15
2018-08-28T06:03:51.431Z,5.35
2018-08-28T06:06:20.730Z,6.08
2018-08-28T06:08:50.049Z,5.00
2018-08-28T06:11:19.396Z,4.78
2018-08-28T06:13:48.729Z,4.70
2018-08-28T06:16:18.023Z,5.30
2018-08-28T06:18:48.524Z,4.55
2018-08-28T06:21:17.800Z,4.50
2018-08-28T06:23:47.050Z,5.45
2018-08-28T06:26:16.339Z,5.50
2018-08-28T06:28:45.581Z,6.20
2018-08-28T06:31:14.793Z,4.78
2018-08-28T06:33:44.040Z,5.30
2018-08-28T06:36:13.456Z,4.35
2018-08-28T06:38:42.777Z,5.70
2018-08-28T06:41:11.993Z,5.20
2018-08-28T06:43:41.323Z,5.15
2018-08-28T06:46:10.568Z,5.70
2018-08-28T06:48:39.782Z,5.25
2018-08-28T06:51:09.012Z,4.72
2018-08-28T06:53:38.304Z,4.22
2018-08-28T06:56:07.516Z,4.90
2018-08-28T06:58:36.777Z,4.55
2018-08-28T07:01:06.006Z,3.95
2018-08-28T07:03:35.241Z,4.10
2018-08-28T07:06:04.454Z,4.22
2018-08-28T07:08:33.702Z,4.08
2018-08-28T07:11:03.161Z,4.22
2018-08-28T07:13:32.373Z,3.80
2018-08-28T07:16:01.636Z,4.37
2018-08-28T07:18:31.011Z,4.20
2018-08-28T07:21:00.497Z,3.33
2018-08-28T07:23:29.805Z,4.20
2018-08-28T07:25:59.092Z,3.95
2018-08-28T07:28:28.552Z,3.85
2018-08-28T07:30:57.814Z,4.50
2018-08-28T07:33:27.173Z,4.45
2018-08-28T07:35:56.474Z,4.33
2018-08-28T07:38:25.683Z,4.83
2018-08-28T07:40:54.999Z,4.15
2018-08-28T07:43:24.262Z,4.20
2018-08-28T07:45:53.499Z,4.92
2018-08-28T07:48:22.761Z,4.15
2018-08-28T07:51:00.331Z,4.03
2018-08-28T07:53:29.595Z,4.25
2018-08-28T07:55:58.834Z,4.70
2018-08-28T07:58:28.084Z,4.30
2018-08-28T08:00:57.572Z,4.47
2018-08-28T08:03:26.874Z,4.40
2018-08-28T08:05:56.628Z,4.30
2018-08-28T08:08:25.933Z,5.03
2018-08-28T08:10:55.128Z,5.22
2018-08-28T08:13:24.373Z,4.37
2018-08-28T08:15:53.749Z,4.45
2018-08-28T08:18:22.964Z,5.20
2018-08-28T08:20:52.210Z,4.78
2018-08-28T08:23:21.444Z,4.95
2018-08-28T08:25:50.712Z,5.37
2018-08-28T08:28:19.977Z,4.60
2018-08-28T08:30:49.186Z,4.37
2018-08-28T08:33:18.381Z,5.08
2018-08-28T08:35:47.635Z,5.58
2018-08-28T08:38:16.848Z,4.95
2018-08-28T08:40:46.285Z,4.58
2018-08-28T08:43:15.520Z,5.80
2018-08-28T08:45:44.741Z,4.83
2018-08-28T08:48:13.948Z,5.55
2018-08-28T08:50:43.163Z,4.90
2018-08-28T08:53:12.400Z,6.08
2018-08-28T08:55:41.658Z,6.37
2018-08-28T08:58:10.873Z,4.90
2018-08-28T09:00:40.089Z,5.45
2018-08-28T09:03:09.363Z,5.15
2018-08-28T09:05:38.621Z,5.80
2018-08-28T09:08:07.852Z,4.92
2018-08-28T09:10:37.306Z,5.20
2018-08-28T09:13:06.548Z,4.80
2018-08-28T09:15:35.757Z,4.80
2018-08-28T09:18:05.165Z,5.40
2018-08-28T09:20:34.430Z,5.67
2018-08-28T09:23:03.746Z,4.70
2018-08-28T09:25:32.995Z,5.00
2018-08-28T09:28:02.220Z,4.95
2018-08-28T09:30:31.754Z,4.70
2018-08-28T09:33:01.149Z,4.97
2018-08-28T09:35:30.405Z,4.78
2018-08-28T09:37:59.616Z,5.20
2018-08-28T09:40:28.833Z,5.80
2018-08-28T09:42:58.041Z,5.72
2018-08-28T09:45:27.270Z,5.47
2018-08-28T09:47:56.528Z,4.65
2018-08-28T09:50:25.891Z,6.60
2018-08-28T09:52:55.018Z,5.67
2018-08-28T09:55:24.233Z,5.60
2018-08-28T09:57:53.459Z,5.45
2018-08-28T10:00:28.362Z,5.37
2018-08-28T10:02:58.614Z,5.65
2018-08-28T10:05:27.985Z,5.28
2018-08-28T10:07:57.344Z,6.15
2018-08-28T10:10:26.547Z,5.25
2018-08-28T10:12:55.793Z,5.45
2018-08-28T10:15:25.034Z,4.90
2018-08-28T10:17:54.285Z,5.00
2018-08-28T10:20:23.537Z,5.30
2018-08-28T10:22:52.743Z,4.75
2018-08-28T10:25:22.015Z,5.50
2018-08-28T10:27:51.231Z,5.42
2018-08-28T10:30:20.670Z,4.75
2018-08-28T10:32:49.862Z,5.33
2018-08-28T10:35:19.130Z,5.22
2018-08-28T10:37:48.389Z,5.55
2018-08-28T10:40:17.631Z,5.60
2018-08-28T10:42:46.885Z,5.75
2018-08-28T10:45:16.212Z,4.90
2018-08-28T10:47:45.581Z,4.85
2018-08-28T10:50:14.830Z,4.75
2018-08-28T10:52:44.167Z,4.70
2018-08-28T10:55:13.381Z,4.50
2018-08-28T10:57:42.629Z,4.72
2018-08-28T11:00:11.899Z,5.00
2018-08-28T11:02:41.100Z,5.03
2018-08-28T11:05:10.370Z,4.85
2018-08-28T11:07:39.772Z,5.03
2018-08-28T11:10:09.756Z,5.00
2018-08-28T11:12:38.978Z,5.92
2018-08-28T11:15:08.346Z,5.00
2018-08-28T11:17:37.613Z,4.65
2018-08-28T11:20:07.098Z,4.40
2018-08-28T11:22:36.371Z,4.47
2018-08-28T11:25:06.078Z,4.30
2018-08-28T11:27:36.341Z,4.50
2018-08-28T11:30:05.609Z,4.03
2018-08-28T11:32:34.882Z,4.20
2018-08-28T11:35:04.391Z,4.50
2018-08-28T11:37:33.714Z,4.47
2018-08-28T11:40:02.979Z,4.35
2018-08-28T11:42:32.265Z,3.98
2018-08-28T11:45:01.474Z,4.72
2018-08-28T11:47:30.744Z,4.20
2018-08-28T11:49:59.952Z,4.67
2018-08-28T11:52:29.209Z,5.03
2018-08-28T11:54:58.441Z,4.12
2018-08-28T11:57:27.681Z,4.20
2018-08-28T11:59:56.929Z,4.83
2018-08-28T12:02:26.177Z,4.42
2018-08-28T12:04:55.510Z,4.90
2018-08-28T12:07:24.778Z,4.72
2018-08-28T12:09:53.977Z,4.50
2018-08-28T12:12:23.199Z,4.37
2018-08-28T12:14:52.477Z,4.85
2018-08-28T12:17:21.752Z,4.75
2018-08-28T12:19:50.961Z,4.83
2018-08-28T12:22:20.217Z,4.33
2018-08-28T12:24:49.441Z,4.65
2018-08-28T12:27:18.696Z,4.40
2018-08-28T12:29:48.100Z,4.25
2018-08-28T12:32:17.333Z,4.85
2018-08-28T12:34:46.596Z,4.85
2018-08-28T12:37:15.912Z,5.20
2018-08-28T12:39:45.104Z,4.10
2018-08-28T12:42:14.309Z,4.80
2018-08-28T12:44:43.502Z,4.60
2018-08-28T12:47:12.733Z,5.40
2018-08-28T12:49:41.980Z,4.45
2018-08-28T12:52:11.230Z,5.10
2018-08-28T12:54:40.528Z,4.95
2018-08-28T12:57:09.728Z,4.20
2018-08-28T12:59:38.950Z,4.45
2018-08-28T13:02:08.275Z,4.60
2018-08-28T13:04:37.525Z,4.90
2018-08-28T13:07:06.844Z,5.28
2018-08-28T13:09:36.101Z,4.33
2018-08-28T13:12:05.381Z,4.30
2018-08-28T13:14:34.843Z,4.70
2018-08-28T13:17:04.459Z,4.35
2018-08-28T13:19:33.741Z,4.83
2018-08-28T13:22:02.986Z,4.92
2018-08-28T13:24:32.201Z,5.25
2018-08-28T13:27:01.414Z,4.40
2018-08-28T13:29:30.728Z,4.90
2018-08-28T13:31:59.950Z,4.80
2018-08-28T13:34:29.161Z,5.33
2018-08-28T13:36:58.425Z,5.28
2018-08-28T13:39:27.643Z,4.90
2018-08-28T13:41:56.904Z,5.25
2018-08-28T13:44:26.130Z,5.10
2018-08-28T13:46:55.428Z,4.87
2018-08-28T13:49:24.601Z,5.60
2018-08-28T13:51:53.841Z,5.67
2018-08-28T13:54:23.178Z,5.15
2018-08-28T13:56:52.323Z,4.60
2018-08-28T13:59:21.529Z,5.10
2018-08-28T14:01:50.779Z,5.10
2018-08-28T14:04:20.017Z,5.28
2018-08-28T14:06:49.241Z,4.85
2018-08-28T14:09:18.473Z,5.20
2018-08-28T14:11:47.732Z,5.62
2018-08-28T14:14:16.985Z,4.65
2018-08-28T14:16:46.274Z,5.45
2018-08-28T14:19:15.489Z,5.35
2018-08-28T14:21:44.736Z,5.12
2018-08-28T14:24:13.944Z,5.12
2018-08-28T14:26:43.222Z,5.35
2018-08-28T14:29:12.487Z,5.25
2018-08-28T14:31:41.724Z,4.92
2018-08-28T14:34:10.961Z,5.35
2018-08-28T14:36:40.174Z,4.72
2018-08-28T14:39:09.437Z,5.33
2018-08-28T14:41:38.656Z,5.33
2018-08-28T14:44:08.139Z,4.78
2018-08-28T14:46:37.577Z,5.45
2018-08-28T14:49:06.929Z,5.12
2018-08-28T14:51:36.165Z,5.60
2018-08-28T14:54:05.446Z,5.00
2018-08-28T14:56:34.857Z,4.92
2018-08-28T14:59:04.022Z,5.60
2018-08-28T15:01:33.250Z,4.95
2018-08-28T15:04:02.544Z,4.50
2018-08-28T15:06:31.760Z,5.40
2018-08-28T15:09:01.012Z,5.08
2018-08-28T15:11:30.272Z,4.80
2018-08-28T15:13:59.540Z,5.40
2018-08-28T15:16:28.807Z,5.53
2018-08-28T15:18:58.113Z,5.10
2018-08-28T15:21:27.325Z,5.50
2018-08-28T15:23:56.557Z,5.25
2018-08-28T15:26:25.764Z,4.85
2018-08-28T15:28:55.003Z,5.00
2018-08-28T15:31:24.233Z,4.75
2018-08-28T15:33:53.475Z,4.95
2018-08-28T15:36:22.699Z,5.37
2018-08-28T15:38:51.971Z,5.08
2018-08-28T15:41:21.172Z,4.85
2018-08-28T15:43:50.396Z,5.58
2018-08-28T15:46:19.643Z,5.33
2018-08-28T15:48:48.905Z,5.78
2018-08-28T15:51:19.264Z,5.15
2018-08-28T15:53:48.517Z,4.85
2018-08-28T15:56:17.726Z,5.35
2018-08-28T15:58:47.015Z,5.12
2018-08-28T16:01:16.245Z,6.40
2018-08-28T16:03:45.543Z,4.92
2018-08-28T16:06:14.844Z,5.35
2018-08-28T16:08:44.091Z,5.45
2018-08-28T16:11:13.337Z,5.17
2018-08-28T16:13:42.589Z,5.72
2018-08-28T16:16:11.845Z,5.45
2018-08-28T16:18:41.114Z,5.70
2018-08-28T16:21:10.381Z,6.08
2018-08-28T16:23:42.198Z,5.12
2018-08-28T16:26:11.412Z,5.58
2018-08-28T16:28:41.750Z,5.45
2018-08-28T16:31:10.939Z,5.22
2018-08-28T16:33:40.210Z,5.67
2018-08-28T16:36:09.456Z,5.30
2018-08-28T16:38:38.721Z,5.20
2018-08-28T16:41:08.070Z,5.90
2018-08-28T16:43:37.264Z,5.83
2018-08-28T16:46:06.492Z,5.05
2018-08-28T16:48:35.781Z,6.30
2018-08-28T16:51:05.021Z,5.50
2018-08-28T16:53:34.285Z,5.28
2018-08-28T16:56:03.559Z,5.80
2018-08-28T16:58:32.816Z,6.08
2018-08-28T17:01:02.088Z,5.25
2018-08-28T17:03:31.363Z,5.83
2018-08-28T17:06:00.641Z,5.42
2018-08-28T17:08:29.877Z,5.67
2018-08-28T17:10:59.180Z,5.90
2018-08-28T17:13:28.479Z,5.58
2018-08-28T17:15:57.769Z,5.37
2018-08-28T17:18:27.044Z,5.62
2018-08-28T17:20:56.331Z,5.65
2018-08-28T17:23:25.561Z,6.62
2018-08-28T17:25:54.782Z,6.70
2018-08-28T17:28:24.045Z,6.60
2018-08-28T17:30:53.326Z,5.40
2018-08-28T17:33:22.592Z,6.35
2018-08-28T17:35:51.821Z,5.47
2018-08-28T17:38:21.087Z,5.12
2018-08-28T17:40:50.317Z,5.90
2018-08-28T17:43:19.561Z,7.30
2018-08-28T17:45:48.800Z,6.03
2018-08-28T17:48:18.042Z,6.97
2018-08-28T17:50:47.363Z,6.60
2018-08-28T17:53:16.664Z,6.80
2018-08-28T17:55:45.897Z,6.67
2018-08-28T17:58:15.121Z,6.55
2018-08-28T18:00:51.147Z,6.20
2018-08-28T18:03:20.425Z,6.70
2018-08-28T18:05:49.726Z,6.67
2018-08-28T18:08:18.948Z,7.00
2018-08-28T18:10:48.280Z,7.03
2018-08-28T18:13:17.460Z,6.40
2018-08-28T18:15:46.743Z,7.00
2018-08-28T18:18:15.997Z,6.87
2018-08-28T18:20:45.249Z,6.70
2018-08-28T18:23:14.485Z,6.35
2018-08-28T18:25:43.737Z,6.35
2018-08-28T18:28:12.954Z,7.58
2018-08-28T18:30:42.201Z,6.53
2018-08-28T18:33:11.389Z,6.10
2018-08-28T18:35:40.670Z,5.80
2018-08-28T18:38:09.879Z,6.53
2018-08-28T18:40:39.136Z,6.42
2018-08-28T18:43:08.378Z,6.78
2018-08-28T18:45:37.630Z,6.55
2018-08-28T18:48:06.905Z,6.20
2018-08-28T18:50:36.175Z,7.15
2018-08-28T18:53:05.440Z,7.10
2018-08-28T18:55:34.726Z,6.97
2018-08-28T18:58:03.969Z,6.47
2018-08-28T19:00:33.243Z,6.65
2018-08-28T19:03:02.653Z,6.47
2018-08-28T19:05:31.898Z,6.78
2018-08-28T19:08:01.223Z,7.00
2018-08-28T19:10:30.585Z,6.53
2018-08-28T19:12:59.897Z,6.80
2018-08-28T19:15:29.234Z,7.00
2018-08-28T19:17:58.466Z,6.58
2018-08-28T19:20:28.044Z,7.00
2018-08-28T19:22:58.724Z,6.20
2018-08-28T19:25:28.034Z,6.60
2018-08-28T19:27:57.264Z,6.70
2018-08-28T19:30:26.508Z,6.50
2018-08-28T19:32:55.869Z,6.30
2018-08-28T19:35:25.139Z,7.92
2018-08-28T19:37:54.403Z,6.65
2018-08-28T19:40:23.635Z,6.85
2018-08-28T19:42:52.878Z,6.85
2018-08-28T19:45:22.198Z,6.30
2018-08-28T19:47:51.499Z,7.10
2018-08-28T19:50:20.824Z,6.78
2018-08-28T19:52:50.136Z,6.80
2018-08-28T19:55:19.433Z,7.17
2018-08-28T19:57:48.670Z,6.90
2018-08-28T20:00:17.937Z,6.95
2018-08-28T20:02:47.194Z,6.80
2018-08-28T20:05:16.477Z,6.85
2018-08-28T20:07:45.752Z,6.87
2018-08-28T20:10:15.454Z,7.17
2018-08-28T20:12:44.767Z,6.87
2018-08-28T20:15:14.090Z,6.70
2018-08-28T20:17:43.356Z,6.97
2018-08-28T20:20:12.602Z,6.37
2018-08-28T20:22:41.836Z,7.28
2018-08-28T20:25:11.077Z,7.17
2018-08-28T20:27:40.289Z,7.67
2018-08-28T20:30:09.576Z,7.50
2018-08-28T20:32:38.801Z,8.80
2018-08-28T20:35:08.128Z,7.45
2018-08-28T20:37:37.348Z,8.18
2018-08-28T20:40:06.905Z,8.53
2018-08-28T20:42:36.372Z,7.53
2018-08-28T20:45:05.738Z,7.17
2018-08-28T20:47:34.950Z,7.20
2018-08-28T20:50:04.209Z,7.60
2018-08-28T20:52:33.478Z,7.55
2018-08-28T20:55:02.735Z,7.72
2018-08-28T20:57:31.968Z,7.47
2018-08-28T21:00:01.311Z,7.72
2018-08-28T21:02:30.933Z,8.80
2018-08-28T21:05:00.214Z,8.00
2018-08-28T21:07:29.497Z,7.35
2018-08-28T21:09:58.778Z,7.37
2018-08-28T21:12:28.287Z,7.67
2018-08-28T21:14:57.544Z,6.35
2018-08-28T21:17:26.803Z,7.10
2018-08-28T21:19:56.045Z,7.60
2018-08-28T21:22:25.253Z,6.37
2018-08-28T21:24:54.494Z,6.28
2018-08-28T21:27:23.724Z,7.22
2018-08-28T21:29:52.935Z,6.83
2018-08-28T21:32:22.235Z,8.85
2018-08-28T21:34:51.456Z,8.45
2018-08-28T21:37:20.752Z,8.18
2018-08-28T21:39:49.944Z,6.85
2018-08-28T21:42:19.278Z,7.12
2018-08-28T21:44:48.500Z,6.53
2018-08-28T21:47:17.758Z,6.95
2018-08-28T21:49:47.576Z,6.87
2018-08-28T21:52:16.822Z,7.40
2018-08-28T21:54:46.441Z,7.08
2018-08-28T21:57:15.752Z,6.97
2018-08-28T21:59:44.982Z,7.80
2018-08-28T22:02:14.213Z,6.90
2018-08-28T22:04:43.420Z,6.72
2018-08-28T22:07:18.049Z,7.78
2018-08-28T22:09:47.251Z,7.03
2018-08-28T22:12:16.501Z,6.95
2018-08-28T22:14:45.740Z,6.20
2018-08-28T22:17:15.019Z,6.78
2018-08-28T22:19:44.239Z,7.37
2018-08-28T22:22:13.478Z,6.87
2018-08-28T22:24:42.711Z,7.15
2018-08-28T22:27:11.955Z,7.28
2018-08-28T22:29:41.193Z,7.50
2018-08-28T22:32:10.440Z,7.00
2018-08-28T22:34:39.656Z,7.97
2018-08-28T22:37:08.883Z,7.45
2018-08-28T22:39:38.103Z,6.80
2018-08-28T22:42:07.347Z,7.37
2018-08-28T22:44:36.578Z,6.95
2018-08-28T22:47:05.831Z,7.53
2018-08-28T22:49:35.052Z,7.40
2018-08-28T22:52:04.307Z,8.50
2018-08-28T22:54:33.511Z,7.85
2018-08-28T22:57:02.780Z,7.37
2018-08-28T22:59:32.011Z,7.42
2018-08-28T23:02:01.233Z,7.67
2018-08-28T23:04:30.467Z,7.87
2018-08-28T23:06:59.724Z,6.72
2018-08-28T23:09:28.927Z,8.05
2018-08-28T23:11:58.164Z,7.20
2018-08-28T23:14:27.394Z,6.70
2018-08-28T23:16:56.624Z,8.18
2018-08-28T23:19:25.823Z,6.83
2018-08-28T23:21:55.024Z,7.30
2018-08-28T23:24:24.298Z,7.90
2018-08-28T23:26:53.528Z,7.67
2018-08-28T23:29:22.787Z,7.50
2018-08-28T23:31:52.026Z,7.08
2018-08-28T23:34:21.264Z,8.13
2018-08-28T23:36:50.549Z,7.53
2018-08-28T23:39:19.791Z,7.55
2018-08-28T23:41:49.011Z,7.00
2018-08-28T23:44:18.215Z,6.70
2018-08-28T23:46:47.444Z,6.58
2018-08-28T23:49:16.688Z,7.65
2018-08-28T23:51:45.964Z,8.10
2018-08-28T23:54:16.207Z,7.30
2018-08-28T23:56:45.431Z,7.30
2018-08-28T23:59:14.681Z,7.40
